sensor_id;sensor_type;location;lat;lon;timestamp;P1;durP1;ratioP1;P2;durP2;ratioP2
48809;SDS011;40070;47.322;18.784;2023-07-20T00:00:30;5.38;;;1.79;;
48809;SDS011;40070;47.322;18.784;2023-07-20T00:02:27;5.18;;;1.49;;
48809;SDS011;40070;47.322;18.784;2023-07-20T00:04:28;5.39;;;1.79;;
48809;SDS011;40070;47.322;18.784;2023-07-20T00:06:29;3.92;;;1.59;;
48809;SDS011;40070;47.322;18.784;2023-07-20T00:08:30;5.17;;;1.69;;
48809;SDS011;40070;47.322;18.784;2023-07-20T00:10:31;5.72;;;1.69;;
48809;SDS011;40070;47.322;18.784;2023-07-20T00:12:32;4.49;;;1.59;;
48809;SDS011;40070;47.322;18.784;2023-07-20T00:14:33;7.83;;;1.69;;
48809;SDS011;40070;47.322;18.784;2023-07-20T00:16:34;4.00;;;1.69;;
48809;SDS011;40070;47.322;18.784;2023-07-20T00:18:35;5.89;;;1.79;;
48809;SDS011;40070;47.322;18.784;2023-07-20T00:20:37;4.96;;;1.69;;
48809;SDS011;40070;47.322;18.784;2023-07-20T00:22:42;4.20;;;1.69;;
48809;SDS011;40070;47.322;18.784;2023-07-20T00:24:39;4.48;;;1.69;;
48809;SDS011;40070;47.322;18.784;2023-07-20T00:26:41;6.33;;;1.59;;
48809;SDS011;40070;47.322;18.784;2023-07-20T00:28:42;4.42;;;1.69;;
48809;SDS011;40070;47.322;18.784;2023-07-20T00:30:43;4.68;;;1.89;;
48809;SDS011;40070;47.322;18.784;2023-07-20T00:32:44;5.46;;;1.59;;
48809;SDS011;40070;47.322;18.784;2023-07-20T00:34:45;5.34;;;1.49;;
48809;SDS011;40070;47.322;18.784;2023-07-20T00:36:46;4.58;;;1.39;;
48809;SDS011;40070;47.322;18.784;2023-07-20T00:38:47;5.43;;;1.59;;
48809;SDS011;40070;47.322;18.784;2023-07-20T00:40:48;4.29;;;1.69;;
48809;SDS011;40070;47.322;18.784;2023-07-20T00:42:49;3.91;;;1.99;;
48809;SDS011;40070;47.322;18.784;2023-07-20T00:44:50;5.15;;;1.49;;
48809;SDS011;40070;47.322;18.784;2023-07-20T00:46:53;4.48;;;1.49;;
48809;SDS011;40070;47.322;18.784;2023-07-20T00:48:55;5.90;;;2.08;;
48809;SDS011;40070;47.322;18.784;2023-07-20T00:50:57;4.57;;;1.69;;
48809;SDS011;40070;47.322;18.784;2023-07-20T00:52:58;4.77;;;1.79;;
48809;SDS011;40070;47.322;18.784;2023-07-20T00:55:00;6.29;;;2.08;;
48809;SDS011;40070;47.322;18.784;2023-07-20T00:57:01;6.19;;;2.08;;
48809;SDS011;40070;47.322;18.784;2023-07-20T00:59:02;5.32;;;1.98;;
48809;SDS011;40070;47.322;18.784;2023-07-20T01:01:03;6.65;;;2.18;;
48809;SDS011;40070;47.322;18.784;2023-07-20T01:03:04;3.71;;;1.59;;
48809;SDS011;40070;47.322;18.784;2023-07-20T01:05:06;6.35;;;1.98;;
48809;SDS011;40070;47.322;18.784;2023-07-20T01:07:21;5.40;;;1.68;;
48809;SDS011;40070;47.322;18.784;2023-07-20T01:09:50;4.36;;;1.88;;
48809;SDS011;40070;47.322;18.784;2023-07-20T01:11:57;5.88;;;1.98;;
48809;SDS011;40070;47.322;18.784;2023-07-20T01:13:50;5.03;;;1.88;;
48809;SDS011;40070;47.322;18.784;2023-07-20T01:16:01;4.46;;;1.88;;
48809;SDS011;40070;47.322;18.784;2023-07-20T01:17:53;6.47;;;1.69;;
48809;SDS011;40070;47.322;18.784;2023-07-20T01:19:54;4.30;;;1.69;;
48809;SDS011;40070;47.322;18.784;2023-07-20T01:26:55;3.34;;;1.49;;
48809;SDS011;40070;47.322;18.784;2023-07-20T01:29:17;3.93;;;1.49;;
48809;SDS011;40070;47.322;18.784;2023-07-20T01:31:40;4.89;;;1.79;;
48809;SDS011;40070;47.322;18.784;2023-07-20T01:33:42;4.67;;;1.59;;
48809;SDS011;40070;47.322;18.784;2023-07-20T01:35:46;3.82;;;1.69;;
48809;SDS011;40070;47.322;18.784;2023-07-20T01:37:47;5.05;;;1.69;;
48809;SDS011;40070;47.322;18.784;2023-07-20T01:39:48;4.39;;;1.98;;
48809;SDS011;40070;47.322;18.784;2023-07-20T01:41:50;5.64;;;1.69;;
48809;SDS011;40070;47.322;18.784;2023-07-20T01:43:51;5.81;;;1.79;;
48809;SDS011;40070;47.322;18.784;2023-07-20T01:45:52;4.84;;;1.78;;
48809;SDS011;40070;47.322;18.784;2023-07-20T01:47:53;5.81;;;1.89;;
48809;SDS011;40070;47.322;18.784;2023-07-20T01:49:57;3.51;;;1.49;;
48809;SDS011;40070;47.322;18.784;2023-07-20T01:51:58;5.11;;;1.68;;
48809;SDS011;40070;47.322;18.784;2023-07-20T01:53:59;7.11;;;1.98;;
48809;SDS011;40070;47.322;18.784;2023-07-20T01:56:01;6.73;;;1.78;;
48809;SDS011;40070;47.322;18.784;2023-07-20T01:58:02;3.79;;;1.59;;
48809;SDS011;40070;47.322;18.784;2023-07-20T02:00:03;4.84;;;1.88;;
48809;SDS011;40070;47.322;18.784;2023-07-20T02:02:04;9.21;;;2.18;;
48809;SDS011;40070;47.322;18.784;2023-07-20T02:04:05;4.37;;;1.59;;
48809;SDS011;40070;47.322;18.784;2023-07-20T02:06:06;5.30;;;1.68;;
48809;SDS011;40070;47.322;18.784;2023-07-20T02:08:10;4.44;;;1.78;;
48809;SDS011;40070;47.322;18.784;2023-07-20T02:10:11;5.77;;;1.88;;
48809;SDS011;40070;47.322;18.784;2023-07-20T02:12:15;6.42;;;2.08;;
48809;SDS011;40070;47.322;18.784;2023-07-20T02:14:16;4.52;;;1.68;;
48809;SDS011;40070;47.322;18.784;2023-07-20T02:16:17;6.78;;;1.88;;
48809;SDS011;40070;47.322;18.784;2023-07-20T02:18:18;5.09;;;1.68;;
48809;SDS011;40070;47.322;18.784;2023-07-20T02:20:21;5.13;;;1.78;;
48809;SDS011;40070;47.322;18.784;2023-07-20T02:22:22;4.46;;;1.98;;
48809;SDS011;40070;47.322;18.784;2023-07-20T02:24:23;4.83;;;1.68;;
48809;SDS011;40070;47.322;18.784;2023-07-20T02:26:24;5.39;;;1.68;;
48809;SDS011;40070;47.322;18.784;2023-07-20T02:28:27;4.08;;;1.78;;
48809;SDS011;40070;47.322;18.784;2023-07-20T02:30:28;4.92;;;1.78;;
48809;SDS011;40070;47.322;18.784;2023-07-20T02:32:29;6.93;;;1.78;;
48809;SDS011;40070;47.322;18.784;2023-07-20T02:34:30;4.75;;;1.98;;
48809;SDS011;40070;47.322;18.784;2023-07-20T02:36:31;6.14;;;2.18;;
48809;SDS011;40070;47.322;18.784;2023-07-20T02:38:32;5.46;;;1.78;;
48809;SDS011;40070;47.322;18.784;2023-07-20T02:40:33;4.08;;;1.59;;
48809;SDS011;40070;47.322;18.784;2023-07-20T02:42:34;5.00;;;1.98;;
48809;SDS011;40070;47.322;18.784;2023-07-20T02:44:35;5.67;;;1.98;;
48809;SDS011;40070;47.322;18.784;2023-07-20T02:46:36;4.24;;;1.58;;
48809;SDS011;40070;47.322;18.784;2023-07-20T02:48:37;5.86;;;1.78;;
48809;SDS011;40070;47.322;18.784;2023-07-20T02:50:39;4.75;;;1.78;;
48809;SDS011;40070;47.322;18.784;2023-07-20T02:52:40;6.65;;;1.69;;
48809;SDS011;40070;47.322;18.784;2023-07-20T02:54:41;8.24;;;2.08;;
48809;SDS011;40070;47.322;18.784;2023-07-20T02:56:42;8.81;;;2.38;;
48809;SDS011;40070;47.322;18.784;2023-07-20T02:58:43;5.65;;;1.68;;
48809;SDS011;40070;47.322;18.784;2023-07-20T03:00:44;3.86;;;1.78;;
48809;SDS011;40070;47.322;18.784;2023-07-20T03:02:46;3.39;;;1.29;;
48809;SDS011;40070;47.322;18.784;2023-07-20T03:04:49;6.72;;;1.88;;
48809;SDS011;40070;47.322;18.784;2023-07-20T03:06:50;3.61;;;1.49;;
48809;SDS011;40070;47.322;18.784;2023-07-20T03:08:54;4.09;;;1.49;;
48809;SDS011;40070;47.322;18.784;2023-07-20T03:10:55;4.66;;;1.69;;
48809;SDS011;40070;47.322;18.784;2023-07-20T03:12:56;4.09;;;1.69;;
48809;SDS011;40070;47.322;18.784;2023-07-20T03:14:57;5.48;;;1.78;;
48809;SDS011;40070;47.322;18.784;2023-07-20T03:16:58;4.22;;;2.08;;
48809;SDS011;40070;47.322;18.784;2023-07-20T03:18:59;4.86;;;1.68;;
48809;SDS011;40070;47.322;18.784;2023-07-20T03:21:00;3.56;;;1.38;;
48809;SDS011;40070;47.322;18.784;2023-07-20T03:23:01;5.71;;;1.68;;
48809;SDS011;40070;47.322;18.784;2023-07-20T03:25:02;5.87;;;1.68;;
48809;SDS011;40070;47.322;18.784;2023-07-20T03:27:04;5.47;;;1.77;;
48809;SDS011;40070;47.322;18.784;2023-07-20T03:29:06;6.72;;;1.67;;
48809;SDS011;40070;47.322;18.784;2023-07-20T03:31:07;4.79;;;1.38;;
48809;SDS011;40070;47.322;18.784;2023-07-20T03:33:08;6.40;;;1.96;;
48809;SDS011;40070;47.322;18.784;2023-07-20T03:35:09;5.97;;;1.67;;
48809;SDS011;40070;47.322;18.784;2023-07-20T03:37:10;5.49;;;2.26;;
48809;SDS011;40070;47.322;18.784;2023-07-20T03:39:11;3.58;;;1.37;;
48809;SDS011;40070;47.322;18.784;2023-07-20T03:41:20;6.16;;;1.67;;
48809;SDS011;40070;47.322;18.784;2023-07-20T03:43:21;5.75;;;1.77;;
48809;SDS011;40070;47.322;18.784;2023-07-20T03:45:22;4.39;;;1.48;;
48809;SDS011;40070;47.322;18.784;2023-07-20T03:47:23;5.63;;;1.58;;
48809;SDS011;40070;47.322;18.784;2023-07-20T03:49:24;5.83;;;1.68;;
48809;SDS011;40070;47.322;18.784;2023-07-20T03:51:25;7.45;;;1.78;;
48809;SDS011;40070;47.322;18.784;2023-07-20T03:53:26;4.42;;;1.88;;
48809;SDS011;40070;47.322;18.784;2023-07-20T03:55:27;4.06;;;1.19;;
48809;SDS011;40070;47.322;18.784;2023-07-20T03:57:28;4.35;;;1.49;;
48809;SDS011;40070;47.322;18.784;2023-07-20T03:59:29;5.51;;;2.08;;
48809;SDS011;40070;47.322;18.784;2023-07-20T04:01:30;5.03;;;1.98;;
48809;SDS011;40070;47.322;18.784;2023-07-20T04:03:31;3.81;;;1.39;;
48809;SDS011;40070;47.322;18.784;2023-07-20T04:05:32;4.35;;;1.58;;
48809;SDS011;40070;47.322;18.784;2023-07-20T04:07:33;4.83;;;1.78;;
48809;SDS011;40070;47.322;18.784;2023-07-20T04:09:34;4.07;;;1.68;;
48809;SDS011;40070;47.322;18.784;2023-07-20T04:11:35;4.36;;;1.78;;
48809;SDS011;40070;47.322;18.784;2023-07-20T04:13:37;4.08;;;1.88;;
48809;SDS011;40070;47.322;18.784;2023-07-20T04:15:38;5.87;;;1.68;;
48809;SDS011;40070;47.322;18.784;2023-07-20T04:17:39;6.06;;;1.88;;
48809;SDS011;40070;47.322;18.784;2023-07-20T04:19:40;5.79;;;1.49;;
48809;SDS011;40070;47.322;18.784;2023-07-20T04:21:41;4.37;;;1.88;;
48809;SDS011;40070;47.322;18.784;2023-07-20T04:23:42;5.22;;;1.88;;
48809;SDS011;40070;47.322;18.784;2023-07-20T04:25:43;5.12;;;1.59;;
48809;SDS011;40070;47.322;18.784;2023-07-20T04:27:44;3.99;;;1.78;;
48809;SDS011;40070;47.322;18.784;2023-07-20T04:29:45;5.89;;;1.98;;
48809;SDS011;40070;47.322;18.784;2023-07-20T04:31:47;6.08;;;1.98;;
48809;SDS011;40070;47.322;18.784;2023-07-20T04:33:48;4.57;;;1.88;;
48809;SDS011;40070;47.322;18.784;2023-07-20T04:36:00;4.38;;;1.59;;
48809;SDS011;40070;47.322;18.784;2023-07-20T04:38:01;3.91;;;1.79;;
48809;SDS011;40070;47.322;18.784;2023-07-20T04:40:04;4.85;;;1.88;;
48809;SDS011;40070;47.322;18.784;2023-07-20T04:42:05;4.47;;;1.49;;
48809;SDS011;40070;47.322;18.784;2023-07-20T04:44:06;5.33;;;1.88;;
48809;SDS011;40070;47.322;18.784;2023-07-20T04:46:07;5.82;;;2.08;;
48809;SDS011;40070;47.322;18.784;2023-07-20T04:48:13;4.49;;;1.69;;
48809;SDS011;40070;47.322;18.784;2023-07-20T04:50:09;7.91;;;1.79;;
48809;SDS011;40070;47.322;18.784;2023-07-20T04:52:10;5.25;;;1.69;;
48809;SDS011;40070;47.322;18.784;2023-07-20T04:54:11;6.40;;;1.59;;
48809;SDS011;40070;47.322;18.784;2023-07-20T04:56:18;4.97;;;1.99;;
48809;SDS011;40070;47.322;18.784;2023-07-20T04:58:19;9.01;;;2.29;;
48809;SDS011;40070;47.322;18.784;2023-07-20T05:00:20;6.04;;;1.79;;
48809;SDS011;40070;47.322;18.784;2023-07-20T05:02:21;3.94;;;1.69;;
48809;SDS011;40070;47.322;18.784;2023-07-20T05:04:22;5.17;;;1.79;;
48809;SDS011;40070;47.322;18.784;2023-07-20T05:06:26;5.85;;;1.89;;
48809;SDS011;40070;47.322;18.784;2023-07-20T05:08:24;5.76;;;1.99;;
48809;SDS011;40070;47.322;18.784;2023-07-20T05:10:25;4.04;;;1.69;;
48809;SDS011;40070;47.322;18.784;2023-07-20T05:12:26;5.69;;;1.99;;
48809;SDS011;40070;47.322;18.784;2023-07-20T05:14:27;5.50;;;1.89;;
48809;SDS011;40070;47.322;18.784;2023-07-20T05:16:28;4.25;;;1.49;;
48809;SDS011;40070;47.322;18.784;2023-07-20T05:18:29;6.29;;;1.79;;
48809;SDS011;40070;47.322;18.784;2023-07-20T05:20:30;7.87;;;2.09;;
48809;SDS011;40070;47.322;18.784;2023-07-20T05:22:31;4.65;;;1.69;;
48809;SDS011;40070;47.322;18.784;2023-07-20T05:24:32;4.46;;;1.99;;
48809;SDS011;40070;47.322;18.784;2023-07-20T05:26:33;4.28;;;1.79;;
48809;SDS011;40070;47.322;18.784;2023-07-20T05:28:34;4.09;;;1.40;;
48809;SDS011;40070;47.322;18.784;2023-07-20T05:30:35;6.82;;;2.19;;
48809;SDS011;40070;47.322;18.784;2023-07-20T05:32:36;5.36;;;1.99;;
48809;SDS011;40070;47.322;18.784;2023-07-20T05:34:38;7.51;;;1.99;;
48809;SDS011;40070;47.322;18.784;2023-07-20T05:36:58;7.80;;;2.49;;
48809;SDS011;40070;47.322;18.784;2023-07-20T05:38:59;5.48;;;2.29;;
48809;SDS011;40070;47.322;18.784;2023-07-20T05:41:00;5.48;;;1.70;;
48809;SDS011;40070;47.322;18.784;2023-07-20T05:43:01;5.79;;;2.00;;
48809;SDS011;40070;47.322;18.784;2023-07-20T05:45:02;4.12;;;1.70;;
48809;SDS011;40070;47.322;18.784;2023-07-20T05:47:03;4.91;;;2.20;;
48809;SDS011;40070;47.322;18.784;2023-07-20T05:49:04;5.21;;;1.80;;
48809;SDS011;40070;47.322;18.784;2023-07-20T05:51:06;4.42;;;1.80;;
48809;SDS011;40070;47.322;18.784;2023-07-20T05:53:07;4.43;;;1.60;;
48809;SDS011;40070;47.322;18.784;2023-07-20T05:55:08;5.13;;;2.00;;
48809;SDS011;40070;47.322;18.784;2023-07-20T05:57:09;5.32;;;1.70;;
48809;SDS011;40070;47.322;18.784;2023-07-20T05:59:10;8.00;;;3.70;;
48809;SDS011;40070;47.322;18.784;2023-07-20T06:01:11;3.66;;;1.50;;
48809;SDS011;40070;47.322;18.784;2023-07-20T06:03:12;5.35;;;2.00;;
48809;SDS011;40070;47.322;18.784;2023-07-20T06:05:13;3.97;;;1.70;;
48809;SDS011;40070;47.322;18.784;2023-07-20T06:07:14;5.36;;;2.00;;
48809;SDS011;40070;47.322;18.784;2023-07-20T06:09:15;6.05;;;1.70;;
48809;SDS011;40070;47.322;18.784;2023-07-20T06:11:20;5.95;;;2.30;;
48809;SDS011;40070;47.322;18.784;2023-07-20T06:13:21;5.06;;;2.00;;
48809;SDS011;40070;47.322;18.784;2023-07-20T06:15:25;4.77;;;1.90;;
48809;SDS011;40070;47.322;18.784;2023-07-20T06:17:24;5.95;;;1.90;;
48809;SDS011;40070;47.322;18.784;2023-07-20T06:19:24;5.75;;;1.90;;
48809;SDS011;40070;47.322;18.784;2023-07-20T06:21:25;5.06;;;1.60;;
48809;SDS011;40070;47.322;18.784;2023-07-20T06:23:26;4.97;;;1.60;;
48809;SDS011;40070;47.322;18.784;2023-07-20T06:25:27;4.57;;;1.90;;
48809;SDS011;40070;47.322;18.784;2023-07-20T06:27:28;5.36;;;1.70;;
48809;SDS011;40070;47.322;18.784;2023-07-20T06:29:29;5.06;;;1.80;;
48809;SDS011;40070;47.322;18.784;2023-07-20T06:31:34;6.85;;;1.90;;
48809;SDS011;40070;47.322;18.784;2023-07-20T06:33:36;5.46;;;1.90;;
48809;SDS011;40070;47.322;18.784;2023-07-20T06:35:37;8.43;;;1.90;;
48809;SDS011;40070;47.322;18.784;2023-07-20T06:37:38;6.34;;;1.60;;
48809;SDS011;40070;47.322;18.784;2023-07-20T06:39:39;6.05;;;1.70;;
48809;SDS011;40070;47.322;18.784;2023-07-20T06:41:40;6.15;;;1.90;;
48809;SDS011;40070;47.322;18.784;2023-07-20T06:43:41;4.56;;;1.70;;
48809;SDS011;40070;47.322;18.784;2023-07-20T06:45:42;4.66;;;1.60;;
48809;SDS011;40070;47.322;18.784;2023-07-20T06:47:43;6.55;;;1.60;;
48809;SDS011;40070;47.322;18.784;2023-07-20T06:49:54;3.97;;;1.50;;
48809;SDS011;40070;47.322;18.784;2023-07-20T06:51:58;5.86;;;1.70;;
48809;SDS011;40070;47.322;18.784;2023-07-20T06:53:57;4.27;;;1.80;;
48809;SDS011;40070;47.322;18.784;2023-07-20T06:55:58;8.93;;;1.90;;
48809;SDS011;40070;47.322;18.784;2023-07-20T06:57:59;4.27;;;1.50;;
48809;SDS011;40070;47.322;18.784;2023-07-20T07:00:00;4.47;;;1.60;;
48809;SDS011;40070;47.322;18.784;2023-07-20T07:02:01;6.85;;;2.00;;
48809;SDS011;40070;47.322;18.784;2023-07-20T07:04:02;5.36;;;1.70;;
48809;SDS011;40070;47.322;18.784;2023-07-20T07:06:03;4.96;;;1.70;;
48809;SDS011;40070;47.322;18.784;2023-07-20T07:08:04;4.07;;;1.50;;
48809;SDS011;40070;47.322;18.784;2023-07-20T07:10:05;6.06;;;1.80;;
48809;SDS011;40070;47.322;18.784;2023-07-20T07:12:06;7.75;;;1.80;;
48809;SDS011;40070;47.322;18.784;2023-07-20T07:14:07;5.76;;;2.00;;
48809;SDS011;40070;47.322;18.784;2023-07-20T07:16:08;4.97;;;1.80;;
48809;SDS011;40070;47.322;18.784;2023-07-20T07:18:09;4.87;;;1.80;;
48809;SDS011;40070;47.322;18.784;2023-07-20T07:20:10;6.76;;;1.70;;
48809;SDS011;40070;47.322;18.784;2023-07-20T07:22:11;4.47;;;1.70;;
48809;SDS011;40070;47.322;18.784;2023-07-20T07:24:12;5.07;;;1.60;;
48809;SDS011;40070;47.322;18.784;2023-07-20T07:26:13;4.58;;;1.80;;
48809;SDS011;40070;47.322;18.784;2023-07-20T07:28:14;4.58;;;1.80;;
48809;SDS011;40070;47.322;18.784;2023-07-20T07:30:15;5.57;;;1.40;;
48809;SDS011;40070;47.322;18.784;2023-07-20T07:32:16;4.78;;;1.70;;
48809;SDS011;40070;47.322;18.784;2023-07-20T07:34:17;4.98;;;1.50;;
48809;SDS011;40070;47.322;18.784;2023-07-20T07:36:18;8.06;;;2.00;;
48809;SDS011;40070;47.322;18.784;2023-07-20T07:38:19;4.08;;;1.50;;
48809;SDS011;40070;47.322;18.784;2023-07-20T07:40:20;4.47;;;1.80;;
48809;SDS011;40070;47.322;18.784;2023-07-20T07:42:21;3.58;;;1.50;;
48809;SDS011;40070;47.322;18.784;2023-07-20T07:44:22;5.08;;;1.60;;
48809;SDS011;40070;47.322;18.784;2023-07-20T07:46:25;7.57;;;1.80;;
48809;SDS011;40070;47.322;18.784;2023-07-20T07:48:26;4.38;;;1.60;;
48809;SDS011;40070;47.322;18.784;2023-07-20T07:50:27;3.49;;;1.30;;
48809;SDS011;40070;47.322;18.784;2023-07-20T07:52:28;4.08;;;1.30;;
48809;SDS011;40070;47.322;18.784;2023-07-20T07:54:29;2.69;;;1.10;;
48809;SDS011;40070;47.322;18.784;2023-07-20T07:56:30;4.08;;;1.40;;
48809;SDS011;40070;47.322;18.784;2023-07-20T07:58:31;4.78;;;1.50;;
48809;SDS011;40070;47.322;18.784;2023-07-20T08:00:36;7.87;;;1.80;;
48809;SDS011;40070;47.322;18.784;2023-07-20T08:02:36;3.89;;;1.30;;
48809;SDS011;40070;47.322;18.784;2023-07-20T08:04:38;5.68;;;1.60;;
48809;SDS011;40070;47.322;18.784;2023-07-20T08:06:39;4.69;;;1.20;;
48809;SDS011;40070;47.322;18.784;2023-07-20T08:08:40;5.38;;;1.20;;
48809;SDS011;40070;47.322;18.784;2023-07-20T08:10:41;3.59;;;1.20;;
48809;SDS011;40070;47.322;18.784;2023-07-20T08:12:45;3.39;;;1.30;;
48809;SDS011;40070;47.322;18.784;2023-07-20T08:14:47;4.09;;;1.40;;
48809;SDS011;40070;47.322;18.784;2023-07-20T08:16:48;6.38;;;1.50;;
48809;SDS011;40070;47.322;18.784;2023-07-20T08:18:49;5.58;;;1.50;;
48809;SDS011;40070;47.322;18.784;2023-07-20T08:20:50;3.79;;;1.30;;
48809;SDS011;40070;47.322;18.784;2023-07-20T08:22:51;4.09;;;1.30;;
48809;SDS011;40070;47.322;18.784;2023-07-20T08:24:52;3.09;;;1.40;;
48809;SDS011;40070;47.322;18.784;2023-07-20T08:26:54;5.29;;;2.20;;
48809;SDS011;40070;47.322;18.784;2023-07-20T08:28:55;3.89;;;1.20;;
48809;SDS011;40070;47.322;18.784;2023-07-20T08:30:56;5.89;;;1.40;;
48809;SDS011;40070;47.322;18.784;2023-07-20T08:32:57;5.99;;;1.70;;
48809;SDS011;40070;47.322;18.784;2023-07-20T08:34:58;3.99;;;1.40;;
48809;SDS011;40070;47.322;18.784;2023-07-20T08:36:59;3.99;;;1.50;;
48809;SDS011;40070;47.322;18.784;2023-07-20T08:39:00;4.29;;;1.60;;
48809;SDS011;40070;47.322;18.784;2023-07-20T08:41:05;3.29;;;1.10;;
48809;SDS011;40070;47.322;18.784;2023-07-20T08:43:06;4.29;;;1.30;;
48809;SDS011;40070;47.322;18.784;2023-07-20T08:45:10;3.99;;;1.30;;
48809;SDS011;40070;47.322;18.784;2023-07-20T08:47:12;4.19;;;1.30;;
48809;SDS011;40070;47.322;18.784;2023-07-20T08:49:14;3.59;;;1.40;;
48809;SDS011;40070;47.322;18.784;2023-07-20T08:51:16;5.79;;;1.30;;
48809;SDS011;40070;47.322;18.784;2023-07-20T08:53:19;3.50;;;1.30;;
48809;SDS011;40070;47.322;18.784;2023-07-20T08:55:20;3.00;;;0.90;;
48809;SDS011;40070;47.322;18.784;2023-07-20T08:57:22;5.39;;;1.30;;
48809;SDS011;40070;47.322;18.784;2023-07-20T08:59:24;4.19;;;1.10;;
48809;SDS011;40070;47.322;18.784;2023-07-20T09:01:25;4.69;;;1.30;;
48809;SDS011;40070;47.322;18.784;2023-07-20T09:03:26;3.19;;;1.20;;
48809;SDS011;40070;47.322;18.784;2023-07-20T09:05:27;5.89;;;1.10;;
48809;SDS011;40070;47.322;18.784;2023-07-20T09:07:28;3.10;;;1.20;;
48809;SDS011;40070;47.322;18.784;2023-07-20T09:09:29;4.09;;;1.30;;
48809;SDS011;40070;47.322;18.784;2023-07-20T09:11:31;5.29;;;1.50;;
48809;SDS011;40070;47.322;18.784;2023-07-20T09:13:32;4.99;;;1.30;;
48809;SDS011;40070;47.322;18.784;2023-07-20T09:15:33;5.29;;;1.10;;
48809;SDS011;40070;47.322;18.784;2023-07-20T09:17:34;4.79;;;1.10;;
48809;SDS011;40070;47.322;18.784;2023-07-20T09:19:35;3.49;;;1.10;;
48809;SDS011;40070;47.322;18.784;2023-07-20T09:21:36;4.79;;;1.20;;
48809;SDS011;40070;47.322;18.784;2023-07-20T09:23:37;3.79;;;1.20;;
48809;SDS011;40070;47.322;18.784;2023-07-20T09:25:42;3.10;;;1.10;;
48809;SDS011;40070;47.322;18.784;2023-07-20T09:27:44;3.89;;;1.20;;
48809;SDS011;40070;47.322;18.784;2023-07-20T09:29:50;4.59;;;1.20;;
48809;SDS011;40070;47.322;18.784;2023-07-20T09:32:03;3.10;;;1.10;;
48809;SDS011;40070;47.322;18.784;2023-07-20T09:33:51;6.69;;;1.30;;
48809;SDS011;40070;47.322;18.784;2023-07-20T09:35:51;3.00;;;1.10;;
48809;SDS011;40070;47.322;18.784;2023-07-20T09:37:59;5.79;;;1.10;;
48809;SDS011;40070;47.322;18.784;2023-07-20T09:39:54;3.20;;;1.10;;
48809;SDS011;40070;47.322;18.784;2023-07-20T09:41:55;3.20;;;1.20;;
48809;SDS011;40070;47.322;18.784;2023-07-20T09:43:59;6.69;;;1.20;;
48809;SDS011;40070;47.322;18.784;2023-07-20T09:46:13;3.80;;;1.20;;
48809;SDS011;40070;47.322;18.784;2023-07-20T09:48:13;2.90;;;1.20;;
48809;SDS011;40070;47.322;18.784;2023-07-20T09:50:14;3.40;;;1.20;;
48809;SDS011;40070;47.322;18.784;2023-07-20T09:52:17;3.80;;;1.30;;
48809;SDS011;40070;47.322;18.784;2023-07-20T09:54:19;3.79;;;1.00;;
48809;SDS011;40070;47.322;18.784;2023-07-20T09:56:21;3.30;;;1.00;;
48809;SDS011;40070;47.322;18.784;2023-07-20T09:58:22;3.20;;;1.20;;
48809;SDS011;40070;47.322;18.784;2023-07-20T10:00:23;5.89;;;1.30;;
48809;SDS011;40070;47.322;18.784;2023-07-20T10:02:32;5.19;;;1.20;;
48809;SDS011;40070;47.322;18.784;2023-07-20T10:04:29;4.50;;;1.10;;
48809;SDS011;40070;47.322;18.784;2023-07-20T10:06:34;2.90;;;1.20;;
48809;SDS011;40070;47.322;18.784;2023-07-20T10:08:38;3.40;;;1.10;;
48809;SDS011;40070;47.322;18.784;2023-07-20T10:10:38;4.00;;;1.20;;
48809;SDS011;40070;47.322;18.784;2023-07-20T10:12:39;4.10;;;1.20;;
48809;SDS011;40070;47.322;18.784;2023-07-20T10:14:44;4.00;;;1.30;;
48809;SDS011;40070;47.322;18.784;2023-07-20T10:16:54;3.60;;;1.20;;
48809;SDS011;40070;47.322;18.784;2023-07-20T10:21:00;4.09;;;1.40;;
48809;SDS011;40070;47.322;18.784;2023-07-20T10:23:03;2.70;;;0.90;;
48809;SDS011;40070;47.322;18.784;2023-07-20T10:25:04;3.99;;;1.00;;
48809;SDS011;40070;47.322;18.784;2023-07-20T10:27:05;4.79;;;1.30;;
48809;SDS011;40070;47.322;18.784;2023-07-20T10:29:06;11.38;;;1.90;;
48809;SDS011;40070;47.322;18.784;2023-07-20T10:31:08;16.58;;;2.40;;
48809;SDS011;40070;47.322;18.784;2023-07-20T10:33:12;19.27;;;2.60;;
48809;SDS011;40070;47.322;18.784;2023-07-20T10:35:16;10.38;;;1.90;;
48809;SDS011;40070;47.322;18.784;2023-07-20T10:38:01;10.98;;;2.20;;
48809;SDS011;40070;47.322;18.784;2023-07-20T10:39:30;12.98;;;1.50;;
48809;SDS011;40070;47.322;18.784;2023-07-20T10:41:32;36.05;;;6.40;;
48809;SDS011;40070;47.322;18.784;2023-07-20T10:43:35;98.77;;;7.80;;
48809;SDS011;40070;47.322;18.784;2023-07-20T10:45:40;356.56;;;42.10;;
48809;SDS011;40070;47.322;18.784;2023-07-20T10:47:45;133.14;;;12.80;;
48809;SDS011;40070;47.322;18.784;2023-07-20T10:50:01;82.10;;;7.20;;
48809;SDS011;40070;47.322;18.784;2023-07-20T10:51:45;102.18;;;9.80;;
48809;SDS011;40070;47.322;18.784;2023-07-20T10:53:50;36.16;;;5.50;;
48809;SDS011;40070;47.322;18.784;2023-07-20T10:55:48;14.09;;;1.80;;
48809;SDS011;40070;47.322;18.784;2023-07-20T11:00:13;11.99;;;1.80;;
48809;SDS011;40070;47.322;18.784;2023-07-20T11:02:08;3.00;;;1.10;;
48809;SDS011;40070;47.322;18.784;2023-07-20T11:04:09;5.60;;;1.40;;
48809;SDS011;40070;47.322;18.784;2023-07-20T11:08:12;5.40;;;1.00;;
48809;SDS011;40070;47.322;18.784;2023-07-20T11:10:14;6.00;;;1.30;;
48809;SDS011;40070;47.322;18.784;2023-07-20T11:12:17;4.20;;;0.80;;
48809;SDS011;40070;47.322;18.784;2023-07-20T11:14:29;8.00;;;1.00;;
48809;SDS011;40070;47.322;18.784;2023-07-20T11:16:46;3.20;;;1.10;;
48809;SDS011;40070;47.322;18.784;2023-07-20T11:18:44;2.80;;;0.80;;
48809;SDS011;40070;47.322;18.784;2023-07-20T11:20:49;4.10;;;0.90;;
48809;SDS011;40070;47.322;18.784;2023-07-20T11:22:50;3.10;;;1.10;;
48809;SDS011;40070;47.322;18.784;2023-07-20T11:24:54;2.70;;;0.90;;
48809;SDS011;40070;47.322;18.784;2023-07-20T11:26:53;4.80;;;1.40;;
48809;SDS011;40070;47.322;18.784;2023-07-20T11:28:53;3.10;;;1.00;;
48809;SDS011;40070;47.322;18.784;2023-07-20T11:30:55;2.90;;;1.00;;
48809;SDS011;40070;47.322;18.784;2023-07-20T11:32:55;5.40;;;1.30;;
48809;SDS011;40070;47.322;18.784;2023-07-20T11:34:56;4.60;;;1.00;;
48809;SDS011;40070;47.322;18.784;2023-07-20T11:36:58;5.30;;;1.80;;
48809;SDS011;40070;47.322;18.784;2023-07-20T11:38:59;3.30;;;1.20;;
48809;SDS011;40070;47.322;18.784;2023-07-20T11:41:00;2.80;;;0.90;;
48809;SDS011;40070;47.322;18.784;2023-07-20T11:43:01;3.20;;;1.00;;
48809;SDS011;40070;47.322;18.784;2023-07-20T11:45:03;3.10;;;1.10;;
48809;SDS011;40070;47.322;18.784;2023-07-20T11:47:04;3.30;;;1.10;;
48809;SDS011;40070;47.322;18.784;2023-07-20T11:49:04;2.70;;;0.90;;
48809;SDS011;40070;47.322;18.784;2023-07-20T11:51:16;3.30;;;1.10;;
48809;SDS011;40070;47.322;18.784;2023-07-20T11:53:11;3.80;;;1.20;;
48809;SDS011;40070;47.322;18.784;2023-07-20T11:55:13;3.30;;;1.00;;
48809;SDS011;40070;47.322;18.784;2023-07-20T11:57:17;4.40;;;1.70;;
48809;SDS011;40070;47.322;18.784;2023-07-20T11:59:18;3.10;;;1.10;;
48809;SDS011;40070;47.322;18.784;2023-07-20T12:01:17;3.70;;;1.30;;
48809;SDS011;40070;47.322;18.784;2023-07-20T12:03:18;3.70;;;1.00;;
48809;SDS011;40070;47.322;18.784;2023-07-20T12:05:19;4.60;;;1.20;;
48809;SDS011;40070;47.322;18.784;2023-07-20T12:07:20;4.10;;;0.90;;
48809;SDS011;40070;47.322;18.784;2023-07-20T12:09:21;5.40;;;1.30;;
48809;SDS011;40070;47.322;18.784;2023-07-20T12:11:31;5.50;;;1.10;;
48809;SDS011;40070;47.322;18.784;2023-07-20T12:13:23;4.50;;;1.00;;